Marina Lobra — IXVN — position and weather

sailwx.info

Track history (hours):
 
Tides and Currents Weather Stations Pressure Air Temp Water Temp Dewpoint Dewpoint Depression Visibility Wind Speed Wind Dir Waves Ship Positions

Marina Lobra

Last reported at 2016-Jun-30 15:16 UTC. Time now 2016-Jun-30 17:50 UTC.
Position N 40°50' E 014°16'.

Length 56 m; draft 2.4 m.

Type: Ship (hazmat cat C). MMSI: 247188300.

Date/timePositionNaut miles runAvg speedWind from/ knotsBaromVisibWave heightAir tempDewpointWater temp
2016-Jun-30 15:16N 40°50' E 014°16'1 1.5
2016-Jun-30 14:32N 40°50' E 014°17'0 0.0
2016-Jun-30 12:33N 40°50' E 014°17'0 0.0
2016-Jun-30 11:33N 40°50' E 014°17'0 0.0
2016-Jun-30 10:33N 40°50' E 014°17'0 0.0
2016-Jun-30 09:33N 40°50' E 014°17'0 0.0
2016-Jun-30 08:22N 40°50' E 014°17'0 0.0
2016-Jun-30 07:24N 40°50' E 014°17'1 0.2
2016-Jun-30 01:32N 40°51' E 014°16'0 0.0
2016-Jun-29 22:25N 40°51' E 014°16'1 0.1
2016-Jun-29 16:33N 40°50' E 014°16'1 0.3
2016-Jun-29 14:33N 40°50' E 014°16'0 0.1
2016-Jun-29 13:33N 40°50' E 014°16'1 1.1
2016-Jun-29 12:25N 40°50' E 014°17'0 0.1
2016-Jun-29 11:33N 40°50' E 014°17'0 0.0
2016-Jun-29 10:33N 40°50' E 014°17'0 0.0
2016-Jun-29 09:33N 40°50' E 014°17'0 0.0
2016-Jun-29 08:30N 40°50' E 014°17'2 0.1
2016-Jun-28 10:28N 40°50' E 014°15'1 1.2
2016-Jun-28 09:33N 40°50' E 014°17'0 0.4
2016-Jun-28 08:33N 40°50' E 014°17'0 0.0
2016-Jun-28 07:33N 40°50' E 014°17'0 0.0
2016-Jun-28 06:33N 40°50' E 014°17'0 0.0
2016-Jun-27 10:24N 40°50' E 014°17'0 0.5
2016-Jun-27 09:33N 40°50' E 014°17'0 0.0
2016-Jun-27 08:33N 40°50' E 014°17'0 0.0
2016-Jun-27 07:33N 40°50' E 014°17'0 0.0
2016-Jun-27 06:33N 40°50' E 014°17'1 0.2
2016-Jun-26 23:26N 40°51' E 014°16'0 0.0
2016-Jun-26 17:17N 40°51' E 014°16'0 0.0
2016-Jun-26 16:27N 40°51' E 014°16'0 0.0
2016-Jun-26 15:33N 40°51' E 014°16'0 0.0
2016-Jun-26 14:33N 40°51' E 014°16'0 0.0
2016-Jun-26 13:18N 40°51' E 014°16'0 0.0
2016-Jun-26 12:28N 40°51' E 014°16'0 0.0
2016-Jun-25 23:28N 40°51' E 014°16'0 0.0
2016-Jun-25 22:24N 40°51' E 014°16'0 0.0
2016-Jun-25 20:29N 40°51' E 014°16'0 0.0
2016-Jun-25 19:32N 40°51' E 014°16'0 0.0
2016-Jun-25 18:33N 40°51' E 014°16'0 0.0
2016-Jun-25 17:18N 40°51' E 014°16'0 0.0
2016-Jun-25 15:33N 40°51' E 014°16'0 0.0
2016-Jun-25 14:33N 40°51' E 014°16'0 0.0
2016-Jun-25 13:33N 40°51' E 014°16'0 0.0
2016-Jun-25 12:33N 40°51' E 014°16'0 0.0
2016-Jun-24 10:06N 40°50' E 014°16'1 2.3
2016-Jun-24 09:33N 40°50' E 014°17'0 0.0
2016-Jun-24 08:33N 40°50' E 014°17'0 0.0
2016-Jun-24 07:33N 40°50' E 014°17'17 0.5
2016-Jun-22 20:21N 40°33' E 014°14'3 4.1
2016-Jun-22 19:33N 40°37' E 014°16'6 6.4
2016-Jun-22 18:33N 40°43' E 014°17'6 6.4
2016-Jun-22 17:33N 40°49' E 014°18'1 0.2
2016-Jun-22 11:18N 40°50' E 014°17'0 0.0
2016-Jun-22 10:33N 40°50' E 014°17'0 0.0
2016-Jun-22 09:33N 40°50' E 014°17'1 0.1
2016-Jun-21 19:05N 40°51' E 014°16'1 0.1
2016-Jun-21 10:33N 40°50' E 014°17'0 0.0
2016-Jun-21 09:33N 40°50' E 014°17'  
Track history (hours):
 
Tides and Currents Weather Stations Pressure Air Temp Water Temp Dewpoint Dewpoint Depression Visibility Wind Speed Wind Dir Waves Ship Positions

Marina Lobra

Last reported at 2016-Jun-30 15:16 UTC. Time now 2016-Jun-30 17:50 UTC.
Position N 40°50' E 014°16'.

Length 56 m; draft 2.4 m.

Type: Ship (hazmat cat C). MMSI: 247188300.

Date/timePositionNaut miles runAvg speedWind from/ knotsBaromVisibWave heightAir tempDewpointWater temp
2016-Jun-30 15:16N 40°50' E 014°16'1 1.5
2016-Jun-30 14:32N 40°50' E 014°17'0 0.0
2016-Jun-30 12:33N 40°50' E 014°17'0 0.0
2016-Jun-30 11:33N 40°50' E 014°17'0 0.0
2016-Jun-30 10:33N 40°50' E 014°17'0 0.0
2016-Jun-30 09:33N 40°50' E 014°17'0 0.0
2016-Jun-30 08:22N 40°50' E 014°17'0 0.0
2016-Jun-30 07:24N 40°50' E 014°17'1 0.2
2016-Jun-30 01:32N 40°51' E 014°16'0 0.0
2016-Jun-29 22:25N 40°51' E 014°16'1 0.1
2016-Jun-29 16:33N 40°50' E 014°16'1 0.3
2016-Jun-29 14:33N 40°50' E 014°16'0 0.1
2016-Jun-29 13:33N 40°50' E 014°16'1 1.1
2016-Jun-29 12:25N 40°50' E 014°17'0 0.1
2016-Jun-29 11:33N 40°50' E 014°17'0 0.0
2016-Jun-29 10:33N 40°50' E 014°17'0 0.0
2016-Jun-29 09:33N 40°50' E 014°17'0 0.0
2016-Jun-29 08:30N 40°50' E 014°17'2 0.1
2016-Jun-28 10:28N 40°50' E 014°15'1 1.2
2016-Jun-28 09:33N 40°50' E 014°17'0 0.4
2016-Jun-28 08:33N 40°50' E 014°17'0 0.0
2016-Jun-28 07:33N 40°50' E 014°17'0 0.0
2016-Jun-28 06:33N 40°50' E 014°17'0 0.0
2016-Jun-27 10:24N 40°50' E 014°17'0 0.5
2016-Jun-27 09:33N 40°50' E 014°17'0 0.0
2016-Jun-27 08:33N 40°50' E 014°17'0 0.0
2016-Jun-27 07:33N 40°50' E 014°17'0 0.0
2016-Jun-27 06:33N 40°50' E 014°17'1 0.2
2016-Jun-26 23:26N 40°51' E 014°16'0 0.0
2016-Jun-26 17:17N 40°51' E 014°16'0 0.0
2016-Jun-26 16:27N 40°51' E 014°16'0 0.0
2016-Jun-26 15:33N 40°51' E 014°16'0 0.0
2016-Jun-26 14:33N 40°51' E 014°16'0 0.0
2016-Jun-26 13:18N 40°51' E 014°16'0 0.0
2016-Jun-26 12:28N 40°51' E 014°16'0 0.0
2016-Jun-25 23:28N 40°51' E 014°16'0 0.0
2016-Jun-25 22:24N 40°51' E 014°16'0 0.0
2016-Jun-25 20:29N 40°51' E 014°16'0 0.0
2016-Jun-25 19:32N 40°51' E 014°16'0 0.0
2016-Jun-25 18:33N 40°51' E 014°16'0 0.0
2016-Jun-25 17:18N 40°51' E 014°16'0 0.0
2016-Jun-25 15:33N 40°51' E 014°16'0 0.0
2016-Jun-25 14:33N 40°51' E 014°16'0 0.0
2016-Jun-25 13:33N 40°51' E 014°16'0 0.0
2016-Jun-25 12:33N 40°51' E 014°16'0 0.0
2016-Jun-24 10:06N 40°50' E 014°16'1 2.3
2016-Jun-24 09:33N 40°50' E 014°17'0 0.0
2016-Jun-24 08:33N 40°50' E 014°17'0 0.0
2016-Jun-24 07:33N 40°50' E 014°17'17 0.5
2016-Jun-22 20:21N 40°33' E 014°14'3 4.1
2016-Jun-22 19:33N 40°37' E 014°16'6 6.4
2016-Jun-22 18:33N 40°43' E 014°17'6 6.4
2016-Jun-22 17:33N 40°49' E 014°18'1 0.2
2016-Jun-22 11:18N 40°50' E 014°17'0 0.0
2016-Jun-22 10:33N 40°50' E 014°17'0 0.0
2016-Jun-22 09:33N 40°50' E 014°17'1 0.1
2016-Jun-21 19:05N 40°51' E 014°16'1 0.1
2016-Jun-21 10:33N 40°50' E 014°17'0 0.0
2016-Jun-21 09:33N 40°50' E 014°17'  

Dump ship's entire track history